createdAt,value
2019-05-22T00:00:15.329Z,10.666199
2019-05-22T00:01:24.881Z,10.666199
2019-05-22T00:02:34.385Z,10.67627
2019-05-22T00:03:43.894Z,10.67627
2019-05-22T00:04:53.418Z,10.666199
2019-05-22T00:06:02.984Z,10.666199
2019-05-22T00:07:12.511Z,10.635986
2019-05-22T00:08:22.033Z,10.666199
2019-05-22T00:09:31.543Z,10.635986
2019-05-22T00:10:41.063Z,10.635986
2019-05-22T00:11:50.592Z,10.666199
2019-05-22T00:13:00.115Z,10.666199
2019-05-22T00:14:09.612Z,10.666199
2019-05-22T00:15:19.121Z,10.666199
2019-05-22T00:16:28.679Z,10.67627
2019-05-22T00:17:38.198Z,10.635986
2019-05-22T00:18:47.701Z,10.635986
2019-05-22T00:19:57.219Z,10.635986
2019-05-22T00:21:06.723Z,10.635986
2019-05-22T00:22:16.312Z,10.625916
2019-05-22T00:23:25.822Z,10.625916
2019-05-22T00:24:35.337Z,10.625916
2019-05-22T00:25:44.851Z,10.635986
2019-05-22T00:26:54.392Z,10.635986
2019-05-22T00:28:03.908Z,10.666199
2019-05-22T00:29:13.432Z,10.666199
2019-05-22T00:30:22.935Z,10.666199
2019-05-22T00:31:32.487Z,10.635986
2019-05-22T00:32:42.012Z,10.67627
2019-05-22T00:33:51.508Z,10.625916
2019-05-22T00:35:01.015Z,10.635986
2019-05-22T00:36:10.531Z,10.635986
2019-05-22T00:37:20.059Z,10.625916
2019-05-22T00:38:29.583Z,10.635986
2019-05-22T00:39:39.103Z,10.625916
2019-05-22T00:40:48.621Z,10.625916
2019-05-22T00:41:58.184Z,10.635986
2019-05-22T00:43:13.679Z,10.625916
2019-05-22T00:44:17.180Z,10.625916
2019-05-22T00:45:26.690Z,10.625916
2019-05-22T00:46:36.211Z,10.625916
2019-05-22T00:47:45.752Z,10.625916
2019-05-22T00:48:55.264Z,10.605774
2019-05-22T00:50:04.770Z,10.605774
2019-05-22T00:51:14.288Z,10.605774
2019-05-22T00:52:23.835Z,10.625916
2019-05-22T00:53:33.362Z,10.625916
2019-05-22T00:54:42.868Z,10.625916
2019-05-22T00:55:52.379Z,10.605774
2019-05-22T00:57:01.955Z,10.605774
2019-05-22T00:58:11.452Z,10.605774
2019-05-22T00:59:20.970Z,10.605774
2019-05-22T01:00:30.472Z,10.605774
2019-05-22T01:01:39.985Z,10.625916
2019-05-22T01:02:49.527Z,10.595703
2019-05-22T01:03:59.035Z,10.595703
2019-05-22T01:05:08.560Z,10.605774
2019-05-22T01:06:18.065Z,10.595703
2019-05-22T01:07:27.600Z,10.605774
2019-05-22T01:08:37.157Z,10.585632
2019-05-22T01:09:46.679Z,10.595703
2019-05-22T01:10:56.222Z,10.595703
2019-05-22T01:12:05.727Z,10.565491
2019-05-22T01:13:15.244Z,10.585632
2019-05-22T01:14:24.763Z,10.585632
2019-05-22T01:15:35.249Z,10.585632
2019-05-22T01:16:44.766Z,10.595703
2019-05-22T01:17:54.294Z,10.585632
2019-05-22T01:19:03.806Z,10.585632
2019-05-22T01:20:13.316Z,10.585632
2019-05-22T01:21:22.833Z,10.585632
2019-05-22T01:22:32.342Z,10.565491
2019-05-22T01:23:41.897Z,10.565491
2019-05-22T01:24:51.406Z,10.565491
2019-05-22T01:26:00.907Z,10.585632
2019-05-22T01:27:10.427Z,10.585632
2019-05-22T01:28:20.015Z,10.585632
2019-05-22T01:29:29.521Z,10.565491
2019-05-22T01:30:39.025Z,10.585632
2019-05-22T01:31:48.536Z,10.595703
2019-05-22T01:32:58.058Z,10.585632
2019-05-22T01:34:07.593Z,10.565491
2019-05-22T01:35:17.111Z,10.565491
2019-05-22T01:36:26.614Z,10.585632
2019-05-22T01:37:36.124Z,10.565491
2019-05-22T01:38:45.671Z,10.585632
2019-05-22T01:39:55.194Z,10.565491
2019-05-22T01:41:04.716Z,10.55542
2019-05-22T01:42:14.240Z,10.55542
2019-05-22T01:43:23.743Z,10.55542
2019-05-22T01:44:33.320Z,10.55542
2019-05-22T01:45:42.830Z,10.565491
2019-05-22T01:46:52.354Z,10.535278
2019-05-22T01:48:01.861Z,10.535278
2019-05-22T01:49:11.403Z,10.55542
2019-05-22T01:50:20.915Z,10.55542
2019-05-22T01:51:30.424Z,10.565491
2019-05-22T01:52:39.926Z,10.565491
2019-05-22T01:53:49.468Z,10.55542
2019-05-22T01:54:59.002Z,10.55542
2019-05-22T01:56:08.710Z,10.565491
2019-05-22T01:57:18.043Z,10.55542
2019-05-22T01:58:27.551Z,10.55542
2019-05-22T01:59:37.110Z,10.55542
2019-05-22T02:00:46.636Z,10.565491
2019-05-22T02:01:56.145Z,10.55542
2019-05-22T02:03:06.661Z,10.55542
2019-05-22T02:04:16.228Z,10.55542
2019-05-22T02:05:25.747Z,10.55542
2019-05-22T02:06:35.256Z,10.55542
2019-05-22T02:07:44.772Z,10.55542
2019-05-22T02:08:54.282Z,10.55542
2019-05-22T02:10:03.884Z,10.55542
2019-05-22T02:11:13.356Z,10.55542
2019-05-22T02:12:22.870Z,10.55542
2019-05-22T02:13:32.385Z,10.55542
2019-05-22T02:14:41.928Z,10.55542
2019-05-22T02:15:51.496Z,10.565491
2019-05-22T02:17:00.989Z,10.55542
2019-05-22T02:18:10.489Z,10.535278
2019-05-22T02:19:20.011Z,10.55542
2019-05-22T02:20:29.654Z,10.55542
2019-05-22T02:21:39.134Z,10.55542
2019-05-22T02:22:48.662Z,10.535278
2019-05-22T02:23:58.169Z,10.535278
2019-05-22T02:25:07.713Z,10.55542
2019-05-22T02:26:17.227Z,10.535278
2019-05-22T02:27:26.742Z,10.55542
2019-05-22T02:28:36.265Z,10.55542
2019-05-22T02:29:45.787Z,10.55542
2019-05-22T02:30:55.405Z,10.55542
2019-05-22T02:32:04.904Z,10.535278
2019-05-22T02:33:14.436Z,10.535278
2019-05-22T02:34:23.949Z,10.535278
2019-05-22T02:35:33.488Z,10.525208
2019-05-22T02:36:43.005Z,10.535278
2019-05-22T02:37:52.539Z,10.55542
2019-05-22T02:39:02.045Z,10.525208
2019-05-22T02:40:11.576Z,10.535278
2019-05-22T02:41:21.095Z,10.535278
2019-05-22T02:42:30.630Z,10.535278
2019-05-22T02:43:40.130Z,10.55542
2019-05-22T02:44:49.650Z,10.535278
2019-05-22T02:45:59.196Z,10.535278
2019-05-22T02:47:18.644Z,10.535278
2019-05-22T02:48:19.189Z,10.535278
2019-05-22T02:49:28.697Z,10.55542
2019-05-22T02:50:38.263Z,10.535278
2019-05-22T02:51:47.775Z,10.535278
2019-05-22T02:52:57.302Z,10.55542
2019-05-22T02:54:06.827Z,10.55542
2019-05-22T02:55:16.334Z,10.55542
2019-05-22T02:56:25.912Z,10.535278
2019-05-22T02:57:35.477Z,10.55542
2019-05-22T02:58:44.945Z,10.535278
2019-05-22T02:59:54.474Z,10.535278
2019-05-22T03:01:04.020Z,10.535278
2019-05-22T03:02:13.532Z,10.55542
2019-05-22T03:03:23.073Z,10.535278
2019-05-22T03:04:32.592Z,10.535278
2019-05-22T03:05:42.265Z,10.535278
2019-05-22T03:06:51.771Z,10.535278
2019-05-22T03:08:01.283Z,10.535278
2019-05-22T03:09:10.807Z,10.535278
2019-05-22T03:10:20.338Z,10.525208
2019-05-22T03:11:29.886Z,10.535278
2019-05-22T03:12:39.380Z,10.525208
2019-05-22T03:13:48.905Z,10.535278
2019-05-22T03:14:58.415Z,10.525208
2019-05-22T03:16:07.946Z,10.535278
2019-05-22T03:17:17.460Z,10.535278
2019-05-22T03:18:26.966Z,10.535278
2019-05-22T03:19:36.479Z,10.525208
2019-05-22T03:20:45.989Z,10.535278
2019-05-22T03:21:55.546Z,10.525208
2019-05-22T03:23:05.044Z,10.525208
2019-05-22T03:24:14.553Z,10.505066
2019-05-22T03:25:24.068Z,10.525208
2019-05-22T03:26:33.600Z,10.525208
2019-05-22T03:27:43.129Z,10.525208
2019-05-22T03:28:52.641Z,10.505066
2019-05-22T03:30:02.229Z,10.525208
2019-05-22T03:31:11.715Z,10.505066
2019-05-22T03:32:21.234Z,10.525208
2019-05-22T03:33:30.748Z,10.505066
2019-05-22T03:34:40.278Z,10.525208
2019-05-22T03:35:49.783Z,10.505066
2019-05-22T03:36:59.352Z,10.505066
2019-05-22T03:38:08.884Z,10.525208
2019-05-22T03:39:18.380Z,10.525208
2019-05-22T03:40:27.898Z,10.525208
2019-05-22T03:41:37.445Z,10.535278
2019-05-22T03:42:46.945Z,10.535278
2019-05-22T03:43:56.499Z,10.535278
2019-05-22T03:45:06.016Z,10.525208
2019-05-22T03:46:15.582Z,10.535278
2019-05-22T03:47:25.120Z,10.535278
2019-05-22T03:48:34.630Z,10.55542
2019-05-22T03:49:44.136Z,10.535278
2019-05-22T03:50:53.638Z,10.55542
2019-05-22T03:52:03.181Z,10.535278
2019-05-22T03:53:12.681Z,10.535278
2019-05-22T03:54:22.199Z,10.535278
2019-05-22T03:55:31.710Z,10.535278
2019-05-22T03:56:41.287Z,10.535278
2019-05-22T03:57:50.804Z,10.535278
2019-05-22T03:59:00.315Z,10.525208
2019-05-22T04:00:09.830Z,10.525208
2019-05-22T04:01:19.350Z,10.535278
2019-05-22T04:02:28.935Z,10.525208
2019-05-22T04:03:38.551Z,10.535278
2019-05-22T04:04:47.952Z,10.525208
2019-05-22T04:05:57.481Z,10.525208
2019-05-22T04:07:07.004Z,10.525208
2019-05-22T04:08:16.509Z,10.525208
2019-05-22T04:09:26.033Z,10.535278
2019-05-22T04:10:35.572Z,10.55542
2019-05-22T04:11:45.062Z,10.525208
2019-05-22T04:12:54.633Z,10.525208
2019-05-22T04:14:04.154Z,10.535278
2019-05-22T04:15:13.782Z,10.535278
2019-05-22T04:16:23.295Z,10.55542
2019-05-22T04:17:32.885Z,10.55542
2019-05-22T04:18:42.412Z,10.565491
2019-05-22T04:19:52.098Z,10.565491
2019-05-22T04:21:01.426Z,10.535278
2019-05-22T04:22:10.987Z,10.55542
2019-05-22T04:23:20.508Z,10.565491
2019-05-22T04:24:30.021Z,10.55542
2019-05-22T04:25:39.532Z,10.565491
2019-05-22T04:26:49.039Z,10.565491
2019-05-22T04:27:58.615Z,10.565491
2019-05-22T04:29:08.105Z,10.585632
2019-05-22T04:30:17.622Z,10.595703
2019-05-22T04:31:27.165Z,10.585632
2019-05-22T04:32:36.739Z,10.585632
2019-05-22T04:33:46.253Z,10.595703
2019-05-22T04:34:55.772Z,10.595703
2019-05-22T04:36:05.278Z,10.605774
2019-05-22T04:37:14.768Z,10.605774
2019-05-22T04:38:24.297Z,10.605774
2019-05-22T04:39:33.809Z,10.625916
2019-05-22T04:40:43.330Z,10.625916
2019-05-22T04:41:52.851Z,10.605774
2019-05-22T04:43:02.382Z,10.625916
2019-05-22T04:44:11.932Z,10.625916
2019-05-22T04:45:21.417Z,10.625916
2019-05-22T04:46:32.137Z,10.625916
2019-05-22T04:47:42.561Z,10.625916
2019-05-22T04:48:52.031Z,10.625916
2019-05-22T04:50:06.995Z,10.635986
2019-05-22T04:51:11.020Z,10.666199
2019-05-22T04:52:20.528Z,10.635986
2019-05-22T04:53:30.074Z,10.635986
2019-05-22T04:54:39.593Z,10.635986
2019-05-22T04:55:49.091Z,10.635986
2019-05-22T04:56:58.600Z,10.635986
2019-05-22T04:58:08.164Z,10.635986
2019-05-22T04:59:17.647Z,10.635986
2019-05-22T05:00:27.140Z,10.635986
2019-05-22T05:01:36.667Z,10.625916
2019-05-22T05:02:46.174Z,10.635986
2019-05-22T05:03:55.743Z,10.635986
2019-05-22T05:05:05.248Z,10.625916
2019-05-22T05:06:14.748Z,10.625916
2019-05-22T05:07:24.257Z,10.635986
2019-05-22T05:08:33.787Z,10.635986
2019-05-22T05:09:43.295Z,10.625916
2019-05-22T05:10:52.813Z,10.635986
2019-05-22T05:12:02.392Z,10.666199
2019-05-22T05:13:11.848Z,10.635986
2019-05-22T05:14:21.537Z,10.635986
2019-05-22T05:15:31.064Z,10.666199
2019-05-22T05:16:40.565Z,10.67627
2019-05-22T05:17:50.080Z,10.666199
2019-05-22T05:18:59.613Z,10.666199
2019-05-22T05:20:21.522Z,10.67627
2019-05-22T05:21:19.599Z,10.67627
2019-05-22T05:22:29.112Z,10.666199
2019-05-22T05:23:38.698Z,10.666199
2019-05-22T05:24:48.186Z,10.67627
2019-05-22T05:25:57.681Z,10.67627
2019-05-22T05:27:07.191Z,10.67627
2019-05-22T05:28:16.704Z,10.67627
2019-05-22T05:29:26.222Z,10.68634
2019-05-22T05:30:35.735Z,10.68634
2019-05-22T05:31:45.252Z,10.716553
2019-05-22T05:32:54.781Z,10.716553
2019-05-22T05:34:04.323Z,10.736694
2019-05-22T05:35:14.821Z,10.736694
2019-05-22T05:36:24.358Z,10.746765
2019-05-22T05:37:33.848Z,10.716553
2019-05-22T05:38:43.362Z,10.776978
2019-05-22T05:39:52.932Z,10.756836
2019-05-22T05:41:02.451Z,10.756836
2019-05-22T05:42:11.984Z,10.776978
2019-05-22T05:43:21.488Z,10.80719
2019-05-22T05:44:31.008Z,10.817261
2019-05-22T05:45:40.501Z,10.857544
2019-05-22T05:46:50.027Z,10.817261
2019-05-22T05:47:59.545Z,10.817261
2019-05-22T05:49:09.102Z,10.837402
2019-05-22T05:50:18.663Z,10.857544
2019-05-22T05:51:29.183Z,10.837402
2019-05-22T05:52:38.689Z,10.857544
2019-05-22T05:53:48.203Z,10.837402
2019-05-22T05:54:57.755Z,10.817261
2019-05-22T05:56:07.271Z,10.837402
2019-05-22T05:57:16.791Z,10.867615
2019-05-22T05:58:26.329Z,10.857544
2019-05-22T05:59:35.880Z,10.837402
2019-05-22T06:00:45.391Z,10.867615
2019-05-22T06:01:54.912Z,10.887756
2019-05-22T06:03:04.418Z,10.887756
2019-05-22T06:04:13.938Z,10.857544
2019-05-22T06:05:24.517Z,10.867615
2019-05-22T06:06:34.026Z,10.887756
2019-05-22T06:07:43.557Z,10.887756
2019-05-22T06:08:53.070Z,10.887756
2019-05-22T06:10:02.619Z,10.887756
2019-05-22T06:11:12.169Z,10.897827
2019-05-22T06:12:21.699Z,10.92804
2019-05-22T06:13:31.211Z,10.92804
2019-05-22T06:14:40.789Z,10.92804
2019-05-22T06:15:50.300Z,10.92804
2019-05-22T06:16:59.833Z,10.93811
2019-05-22T06:18:09.359Z,10.93811
2019-05-22T06:19:18.862Z,10.92804
2019-05-22T06:20:28.485Z,10.917969
2019-05-22T06:21:37.942Z,10.917969
2019-05-22T06:22:47.467Z,10.92804
2019-05-22T06:23:57.967Z,10.958252
2019-05-22T06:25:07.513Z,10.968323
2019-05-22T06:26:17.031Z,10.968323
2019-05-22T06:27:26.551Z,10.988464
2019-05-22T06:28:36.085Z,10.988464
2019-05-22T06:29:45.605Z,10.958252
2019-05-22T06:30:55.151Z,10.968323
2019-05-22T06:32:04.665Z,10.988464
2019-05-22T06:33:14.182Z,10.968323
2019-05-22T06:34:23.734Z,10.968323
2019-05-22T06:35:33.387Z,10.968323
2019-05-22T06:36:42.839Z,10.988464
2019-05-22T06:37:52.349Z,10.988464
2019-05-22T06:39:01.864Z,10.998535
2019-05-22T06:40:11.433Z,10.998535
2019-05-22T06:41:20.951Z,10.998535
2019-05-22T06:42:30.458Z,11.018677
2019-05-22T06:43:39.997Z,11.048889
2019-05-22T06:44:49.482Z,11.079102
2019-05-22T06:45:59.050Z,11.109314
2019-05-22T06:47:08.575Z,11.069031
2019-05-22T06:48:18.094Z,11.069031
2019-05-22T06:49:27.616Z,11.069031
2019-05-22T06:50:37.173Z,11.109314
2019-05-22T06:51:47.680Z,11.119385
2019-05-22T06:53:09.245Z,11.079102
2019-05-22T06:54:07.693Z,11.109314
2019-05-22T06:55:17.217Z,11.139526
2019-05-22T06:56:26.781Z,11.169739
2019-05-22T06:57:36.302Z,11.149597
2019-05-22T06:58:45.828Z,11.17981
2019-05-22T07:00:11.958Z,11.17981
2019-05-22T07:01:05.850Z,11.220093
2019-05-22T07:02:15.434Z,11.250305
2019-05-22T07:03:24.872Z,11.290588
2019-05-22T07:04:34.401Z,11.361084
2019-05-22T07:05:43.943Z,11.320801
2019-05-22T07:06:53.467Z,11.300659
2019-05-22T07:08:03.025Z,11.330872
2019-05-22T07:09:12.535Z,11.320801
2019-05-22T07:10:22.054Z,11.300659
2019-05-22T07:11:31.594Z,11.320801
2019-05-22T07:12:41.118Z,11.290588
2019-05-22T07:13:51.604Z,11.290588
2019-05-22T07:15:01.117Z,11.300659
2019-05-22T07:16:10.682Z,11.290588
2019-05-22T07:17:20.174Z,11.320801
2019-05-22T07:18:29.756Z,11.300659
2019-05-22T07:19:39.206Z,11.361084
2019-05-22T07:20:49.015Z,11.361084
2019-05-22T07:21:58.278Z,11.351013
2019-05-22T07:23:07.795Z,11.330872
2019-05-22T07:24:17.321Z,11.361084
2019-05-22T07:25:26.829Z,11.330872
2019-05-22T07:26:36.373Z,11.300659
2019-05-22T07:27:45.878Z,11.320801
2019-05-22T07:28:55.386Z,11.371155
2019-05-22T07:30:05.915Z,11.411438
2019-05-22T07:31:15.560Z,11.43158
2019-05-22T07:32:24.975Z,11.43158
2019-05-22T07:33:34.483Z,11.44165
2019-05-22T07:34:44.006Z,11.451721
2019-05-22T07:36:11.298Z,11.451721
2019-05-22T07:37:04.084Z,11.471863
2019-05-22T07:38:13.592Z,11.451721
2019-05-22T07:39:23.134Z,11.451721
2019-05-22T07:40:32.650Z,11.471863
2019-05-22T07:41:42.198Z,11.502075
2019-05-22T07:42:51.798Z,11.502075
2019-05-22T07:44:01.264Z,11.522217
2019-05-22T07:45:10.775Z,11.512146
2019-05-22T07:46:20.335Z,11.552429
2019-05-22T07:47:30.857Z,11.542358
2019-05-22T07:48:40.368Z,11.542358
2019-05-22T07:49:49.898Z,11.552429
2019-05-22T07:50:59.407Z,11.552429
2019-05-22T07:52:08.959Z,11.572571
2019-05-22T07:53:18.490Z,11.622925
2019-05-22T07:54:28.002Z,11.69342
2019-05-22T07:55:37.525Z,11.703491
2019-05-22T07:56:47.075Z,11.753845
2019-05-22T07:57:56.595Z,11.834412
2019-05-22T07:59:06.116Z,11.914978
2019-05-22T08:00:15.632Z,11.914978
2019-05-22T08:01:25.188Z,11.93512
2019-05-22T08:02:34.716Z,11.93512
2019-05-22T08:03:44.236Z,11.985474
2019-05-22T08:04:53.746Z,12.025757
2019-05-22T08:06:03.339Z,12.116394
2019-05-22T08:07:12.930Z,12.166748
2019-05-22T08:08:22.439Z,12.176819
2019-05-22T08:09:31.974Z,12.176819
2019-05-22T08:10:41.500Z,12.19696
2019-05-22T08:11:51.066Z,12.146606
2019-05-22T08:13:00.574Z,12.207031
2019-05-22T08:14:10.091Z,12.176819
2019-05-22T08:15:19.605Z,12.096252
2019-05-22T08:16:29.168Z,12.096252
2019-05-22T08:17:38.697Z,12.166748
2019-05-22T08:18:48.211Z,12.176819
2019-05-22T08:19:57.728Z,12.237244
2019-05-22T08:21:07.262Z,12.217102
2019-05-22T08:22:16.817Z,12.207031
2019-05-22T08:23:26.355Z,12.217102
2019-05-22T08:24:35.877Z,12.31781
2019-05-22T08:25:45.390Z,12.388306
2019-05-22T08:26:55.187Z,12.489014
2019-05-22T08:28:04.448Z,12.539368
2019-05-22T08:29:14.012Z,12.579651
2019-05-22T08:30:23.488Z,12.579651
2019-05-22T08:31:33.018Z,12.599792
2019-05-22T08:32:42.576Z,12.609863
2019-05-22T08:33:52.126Z,12.579651
2019-05-22T08:35:01.669Z,12.640076
2019-05-22T08:36:12.208Z,12.650146
2019-05-22T08:37:21.741Z,12.750854
2019-05-22T08:38:31.263Z,12.851562
2019-05-22T08:39:40.801Z,12.901917
2019-05-22T08:40:50.324Z,12.9422
2019-05-22T08:41:59.887Z,12.861633
2019-05-22T08:43:09.426Z,12.861633
2019-05-22T08:44:18.975Z,12.791138
2019-05-22T08:45:28.467Z,12.670288
2019-05-22T08:46:38.038Z,12.579651
2019-05-22T08:47:47.570Z,12.489014
2019-05-22T08:48:57.097Z,12.489014
2019-05-22T08:50:06.630Z,12.56958
2019-05-22T08:51:16.142Z,12.599792
2019-05-22T08:52:25.692Z,12.670288
2019-05-22T08:53:46.490Z,12.7005
2019-05-22T08:54:45.705Z,12.730713
2019-05-22T08:55:55.228Z,12.7005
2019-05-22T08:57:04.780Z,12.7005
2019-05-22T08:58:14.324Z,12.750854
2019-05-22T08:59:23.848Z,12.7005
2019-05-22T09:00:33.376Z,12.640076
2019-05-22T09:01:42.927Z,12.579651
2019-05-22T09:02:52.488Z,12.468872
2019-05-22T09:04:02.007Z,12.468872
2019-05-22T09:05:11.558Z,12.499084
2019-05-22T09:06:22.027Z,12.489014
2019-05-22T09:07:31.577Z,12.468872
2019-05-22T09:08:41.107Z,12.549438
2019-05-22T09:09:50.622Z,12.670288
2019-05-22T09:11:00.139Z,12.801208
2019-05-22T09:12:09.694Z,12.972412
2019-05-22T09:13:19.200Z,13.153687
2019-05-22T09:14:28.710Z,13.153687
2019-05-22T09:15:38.247Z,13.133545
2019-05-22T09:16:47.777Z,13.183899
2019-05-22T09:17:57.299Z,13.19397
2019-05-22T09:19:06.815Z,13.224182
2019-05-22T09:20:16.463Z,13.224182
2019-05-22T09:21:25.954Z,13.123474
2019-05-22T09:22:40.434Z,13.153687
2019-05-22T09:23:44.987Z,13.042908
2019-05-22T09:24:54.510Z,13.042908
2019-05-22T09:26:04.047Z,13.113403
2019-05-22T09:27:13.608Z,13.133545
2019-05-22T09:28:23.143Z,13.133545
2019-05-22T09:29:32.666Z,13.163757
2019-05-22T09:30:42.185Z,13.284607
2019-05-22T09:31:51.709Z,13.405457
2019-05-22T09:33:01.253Z,13.516235
2019-05-22T09:34:10.797Z,13.616943
2019-05-22T09:35:20.299Z,13.455811
2019-05-22T09:36:29.842Z,13.496094
2019-05-22T09:37:39.379Z,13.536377
2019-05-22T09:38:52.098Z,13.556519
2019-05-22T09:39:58.427Z,13.455811
2019-05-22T09:41:07.944Z,13.345032
2019-05-22T09:42:17.596Z,13.334961
2019-05-22T09:43:27.023Z,13.234253
2019-05-22T09:44:36.550Z,13.254395
2019-05-22T09:45:46.073Z,13.153687
2019-05-22T09:46:55.597Z,13.163757
2019-05-22T09:48:05.149Z,13.052979
2019-05-22T09:49:14.668Z,12.982483
2019-05-22T09:50:25.176Z,12.952271
2019-05-22T09:51:34.687Z,12.982483
2019-05-22T09:52:56.663Z,13.002625
2019-05-22T09:53:54.707Z,13.002625
2019-05-22T09:55:04.211Z,12.972412
2019-05-22T09:56:13.713Z,12.952271
2019-05-22T09:57:23.260Z,12.9422
2019-05-22T09:58:32.778Z,12.932129
2019-05-22T09:59:42.294Z,12.932129
2019-05-22T10:00:51.818Z,12.871704
2019-05-22T10:02:01.336Z,12.831421
2019-05-22T10:03:10.941Z,12.851562
2019-05-22T10:04:20.426Z,12.932129
2019-05-22T10:05:30.971Z,12.901917
2019-05-22T10:06:40.456Z,12.831421
2019-05-22T10:08:00.212Z,12.750854
2019-05-22T10:09:00.463Z,12.670288
2019-05-22T10:10:09.985Z,12.609863
2019-05-22T10:11:19.521Z,12.579651
2019-05-22T10:12:29.081Z,12.640076
2019-05-22T10:13:38.839Z,12.680359
2019-05-22T10:14:48.341Z,12.730713
2019-05-22T10:15:57.647Z,12.750854
2019-05-22T10:17:07.154Z,12.7005
2019-05-22T10:18:16.692Z,12.680359
2019-05-22T10:19:26.203Z,12.650146
2019-05-22T10:20:35.727Z,12.619934
2019-05-22T10:21:45.236Z,12.650146
2019-05-22T10:22:54.786Z,12.609863
2019-05-22T10:24:05.282Z,12.609863
2019-05-22T10:25:16.790Z,12.56958
2019-05-22T10:26:24.303Z,12.640076
2019-05-22T10:27:33.839Z,12.781067
2019-05-22T10:28:43.361Z,12.871704
2019-05-22T10:29:52.885Z,13.083191
2019-05-22T10:31:02.660Z,13.254395
2019-05-22T10:32:12.978Z,13.496094
2019-05-22T10:33:22.518Z,13.717651
2019-05-22T10:34:32.041Z,13.919067
2019-05-22T10:35:41.590Z,13.969421
2019-05-22T10:36:51.097Z,14.039917
2019-05-22T10:38:00.635Z,14.100342
2019-05-22T10:39:10.165Z,14.070129
2019-05-22T10:40:19.678Z,14.231262
2019-05-22T10:41:29.194Z,14.472961
2019-05-22T10:42:38.737Z,14.58374
2019-05-22T10:43:48.249Z,14.543457
2019-05-22T10:44:57.767Z,14.624023
2019-05-22T10:46:07.307Z,14.533386
2019-05-22T10:47:18.721Z,14.372253
2019-05-22T10:48:26.381Z,14.402466
2019-05-22T10:49:35.893Z,14.432678
2019-05-22T10:50:45.424Z,14.442749
2019-05-22T10:51:54.964Z,14.412537
2019-05-22T10:53:04.559Z,14.45282
2019-05-22T10:54:14.021Z,14.533386
2019-05-22T10:55:23.544Z,14.58374
2019-05-22T10:56:33.056Z,14.58374
2019-05-22T10:57:43.565Z,14.684448
2019-05-22T10:58:52.156Z,14.70459
2019-05-22T11:00:02.647Z,14.875793
2019-05-22T11:01:12.161Z,14.855652
2019-05-22T11:02:21.679Z,14.906006
2019-05-22T11:03:31.222Z,14.936218
2019-05-22T11:04:40.741Z,15.016785
2019-05-22T11:06:05.558Z,15.107422
2019-05-22T11:07:00.744Z,15.08728
2019-05-22T11:08:10.290Z,14.936218
2019-05-22T11:09:19.821Z,14.724731
2019-05-22T11:10:29.355Z,14.553528
2019-05-22T11:11:38.869Z,14.372253
2019-05-22T11:12:48.396Z,14.231262
2019-05-22T11:14:01.614Z,14.170837
2019-05-22T11:15:08.609Z,14.0802
2019-05-22T11:16:18.099Z,14.029846
2019-05-22T11:17:27.611Z,14.049988
2019-05-22T11:18:37.145Z,14.100342
2019-05-22T11:19:46.655Z,14.180908
2019-05-22T11:20:56.176Z,14.231262
2019-05-22T11:22:05.723Z,14.281616
2019-05-22T11:23:15.243Z,14.321899
2019-05-22T11:24:24.761Z,14.432678
2019-05-22T11:25:34.298Z,14.402466
2019-05-22T11:26:43.806Z,14.321899
2019-05-22T11:27:53.307Z,14.321899
2019-05-22T11:29:02.878Z,14.261475
2019-05-22T11:30:12.408Z,14.321899
2019-05-22T11:31:21.920Z,14.362183
2019-05-22T11:32:31.428Z,14.372253
2019-05-22T11:33:40.979Z,14.402466
2019-05-22T11:34:50.627Z,14.412537
2019-05-22T11:36:00.081Z,14.291687
2019-05-22T11:37:09.602Z,14.221191
2019-05-22T11:38:19.145Z,14.251404
2019-05-22T11:39:38.410Z,14.281616
2019-05-22T11:40:39.129Z,14.180908
2019-05-22T11:41:48.662Z,14.049988
2019-05-22T11:42:58.182Z,13.989563
2019-05-22T11:44:07.859Z,13.94928
2019-05-22T11:45:17.374Z,13.898926
2019-05-22T11:46:26.888Z,13.888855
2019-05-22T11:47:36.406Z,13.919067
2019-05-22T11:48:46.943Z,14.029846
2019-05-22T11:49:56.457Z,14.110413
2019-05-22T11:51:05.975Z,14.150696
2019-05-22T11:52:15.555Z,14.180908
2019-05-22T11:53:25.106Z,14.150696
2019-05-22T11:54:34.625Z,14.180908
2019-05-22T11:55:46.045Z,14.180908
2019-05-22T11:56:53.685Z,14.110413
2019-05-22T11:58:03.205Z,14.150696
2019-05-22T11:59:12.806Z,14.261475
2019-05-22T12:00:22.321Z,14.45282
2019-05-22T12:01:31.840Z,14.624023
2019-05-22T12:02:41.427Z,14.885864
2019-05-22T12:03:50.915Z,15.147705
2019-05-22T12:05:00.432Z,15.359192
2019-05-22T12:06:09.943Z,15.520325
2019-05-22T12:07:19.451Z,15.540466
2019-05-22T12:08:29.002Z,15.751953
2019-05-22T12:09:38.517Z,15.862732
2019-05-22T12:10:48.019Z,15.903015
2019-05-22T12:11:57.554Z,15.802307
2019-05-22T12:13:07.075Z,15.621033
2019-05-22T12:14:16.634Z,15.751953
2019-05-22T12:15:26.153Z,15.802307
2019-05-22T12:16:35.672Z,15.721741
2019-05-22T12:17:45.183Z,15.701599
2019-05-22T12:18:58.360Z,15.671387
2019-05-22T12:20:04.340Z,15.59082
2019-05-22T12:21:13.879Z,15.570679
2019-05-22T12:22:23.397Z,15.359192
2019-05-22T12:23:32.940Z,15.248413
2019-05-22T12:24:42.466Z,15.036926
2019-05-22T12:25:51.964Z,14.966431
2019-05-22T12:27:01.491Z,14.986572
2019-05-22T12:28:10.997Z,14.996643
2019-05-22T12:29:20.545Z,15.026855
2019-05-22T12:30:30.103Z,15.067139
2019-05-22T12:31:39.619Z,15.097351
2019-05-22T12:32:49.147Z,15.137634
2019-05-22T12:33:58.694Z,15.288696
2019-05-22T12:35:08.221Z,15.359192
2019-05-22T12:36:17.745Z,15.369263
2019-05-22T12:37:27.261Z,15.419617
2019-05-22T12:38:36.922Z,15.469971
2019-05-22T12:39:46.332Z,15.621033
2019-05-22T12:40:55.856Z,15.671387
2019-05-22T12:42:05.379Z,15.671387
2019-05-22T12:43:14.891Z,15.671387
2019-05-22T12:44:24.443Z,15.701599
2019-05-22T12:45:33.953Z,15.701599
2019-05-22T12:46:43.493Z,15.540466
2019-05-22T12:47:53.002Z,15.540466
2019-05-22T12:49:02.590Z,15.399475
2019-05-22T12:50:12.106Z,15.349121
2019-05-22T12:51:21.655Z,15.369263
2019-05-22T12:52:31.238Z,15.328979
2019-05-22T12:53:40.776Z,15.218201
2019-05-22T12:54:52.735Z,15.268555
2019-05-22T12:55:59.811Z,15.20813
2019-05-22T12:57:09.346Z,15.238342
2019-05-22T12:58:18.858Z,15.187988
2019-05-22T12:59:28.403Z,15.187988
2019-05-22T13:00:37.963Z,15.288696
2019-05-22T13:01:47.474Z,15.359192
2019-05-22T13:02:56.995Z,15.369263
2019-05-22T13:04:06.532Z,15.328979
2019-05-22T13:05:16.042Z,15.359192
2019-05-22T13:06:25.552Z,15.278625
2019-05-22T13:07:35.080Z,15.328979
2019-05-22T13:08:44.602Z,15.419617
2019-05-22T13:09:54.116Z,15.490112
2019-05-22T13:11:05.358Z,15.399475
2019-05-22T13:12:13.143Z,15.4599
2019-05-22T13:13:22.665Z,15.520325
2019-05-22T13:14:32.214Z,15.490112
2019-05-22T13:15:41.725Z,15.469971
2019-05-22T13:16:51.244Z,15.439758